createdAt,value
2019-03-31T00:00:12.708Z,32.10
2019-03-31T00:02:41.964Z,29.67
2019-03-31T00:05:11.341Z,29.37
2019-03-31T00:07:40.671Z,29.27
2019-03-31T00:10:10.172Z,34.83
2019-03-31T00:12:39.427Z,30.23
2019-03-31T00:15:11.566Z,32.70
2019-03-31T00:17:40.821Z,31.77
2019-03-31T00:20:10.257Z,31.40
2019-03-31T00:22:39.528Z,31.37
2019-03-31T00:25:09.079Z,31.40
2019-03-31T00:27:38.404Z,33.30
2019-03-31T00:30:08.086Z,30.73
2019-03-31T00:32:37.395Z,35.27
2019-03-31T00:35:06.752Z,35.30
2019-03-31T00:37:36.069Z,33.83
2019-03-31T00:40:06.729Z,33.70
2019-03-31T00:42:35.990Z,32.83
2019-03-31T00:45:07.163Z,32.17
2019-03-31T00:47:37.052Z,31.73
2019-03-31T00:50:07.651Z,29.70
2019-03-31T00:52:36.981Z,29.00
2019-03-31T00:55:07.156Z,30.37
2019-03-31T00:57:36.490Z,32.53
2019-03-31T01:00:09.204Z,32.87
2019-03-31T01:02:38.497Z,33.00
2019-03-31T01:05:08.095Z,37.77
2019-03-31T01:07:37.599Z,33.40
2019-03-31T01:10:26.378Z,31.90
2019-03-31T01:12:55.754Z,33.60
2019-03-31T01:15:28.238Z,33.27
2019-03-31T01:17:57.491Z,33.50
2019-03-31T01:20:27.015Z,34.97
2019-03-31T01:22:56.279Z,33.77
2019-03-31T01:25:25.882Z,33.03
2019-03-31T01:27:55.376Z,33.07
2019-03-31T01:30:25.359Z,32.03
2019-03-31T01:32:56.534Z,32.23
2019-03-31T01:35:27.051Z,35.97
2019-03-31T01:37:56.535Z,34.23
2019-03-31T01:40:25.984Z,40.83
2019-03-31T01:42:55.272Z,41.00
2019-03-31T01:45:43.898Z,41.80
2019-03-31T01:48:13.453Z,50.50
2019-03-31T01:50:42.886Z,49.33
2019-03-31T01:53:12.151Z,53.47
2019-03-31T01:55:41.545Z,47.83
2019-03-31T01:58:10.855Z,47.30
2019-03-31T02:00:41.755Z,43.73
2019-03-31T02:03:11.066Z,41.40
2019-03-31T02:05:40.505Z,44.97
2019-03-31T02:08:09.835Z,39.50
2019-03-31T02:10:39.079Z,37.60
2019-03-31T02:13:08.340Z,38.30
2019-03-31T02:15:37.786Z,36.73
2019-03-31T02:18:07.025Z,35.13
2019-03-31T02:20:36.282Z,34.97
2019-03-31T02:23:05.613Z,41.67
2019-03-31T02:25:47.272Z,38.93
2019-03-31T02:28:16.574Z,43.53
2019-03-31T02:30:45.852Z,39.07
2019-03-31T02:33:15.186Z,40.70
2019-03-31T02:35:44.544Z,35.43
2019-03-31T02:38:14.023Z,38.90
2019-03-31T02:41:02.630Z,36.90
2019-03-31T02:43:32.011Z,38.50
2019-03-31T02:46:20.596Z,36.00
2019-03-31T02:48:49.942Z,38.10
2019-03-31T02:51:38.552Z,34.50
2019-03-31T02:54:07.885Z,32.87
2019-03-31T02:56:57.916Z,35.93
2019-03-31T02:59:29.304Z,34.10
2019-03-31T03:02:00.428Z,32.97
2019-03-31T03:04:32.229Z,38.27
2019-03-31T03:07:03.024Z,35.57
2019-03-31T03:09:33.042Z,36.10
2019-03-31T03:12:04.097Z,38.70
2019-03-31T03:14:36.566Z,36.80
2019-03-31T03:17:06.176Z,41.60
2019-03-31T03:19:35.437Z,40.83
2019-03-31T03:22:24.049Z,41.47
2019-03-31T03:24:53.366Z,42.97
2019-03-31T03:27:22.681Z,40.50
2019-03-31T03:29:51.944Z,39.07
2019-03-31T03:32:21.218Z,40.90
2019-03-31T03:35:09.944Z,43.53
2019-03-31T03:37:39.195Z,44.80
2019-03-31T03:40:29.345Z,43.80
2019-03-31T03:42:58.584Z,43.70
2019-03-31T03:45:27.827Z,50.13
2019-03-31T03:47:57.087Z,48.03
2019-03-31T03:50:26.347Z,47.90
2019-03-31T03:52:55.667Z,49.43
2019-03-31T03:55:30.933Z,47.53
2019-03-31T03:58:00.226Z,50.93
2019-03-31T04:00:29.487Z,50.93
2019-03-31T04:02:58.756Z,48.23
2019-03-31T04:05:28.015Z,55.53
2019-03-31T04:07:57.346Z,47.73
2019-03-31T04:10:45.024Z,47.97
2019-03-31T04:13:14.895Z,50.90
2019-03-31T04:15:44.305Z,47.23
2019-03-31T04:18:13.720Z,41.93
2019-03-31T04:20:42.991Z,45.80
2019-03-31T04:23:12.308Z,43.57
2019-03-31T04:25:41.787Z,47.70
2019-03-31T04:28:11.056Z,43.07
2019-03-31T04:30:40.304Z,37.73
2019-03-31T04:33:09.572Z,55.77
2019-03-31T04:35:38.824Z,48.47
2019-03-31T04:38:08.102Z,45.73
2019-03-31T04:40:37.347Z,52.27
2019-03-31T04:43:06.599Z,53.63
2019-03-31T04:45:35.878Z,53.27
2019-03-31T04:48:05.120Z,59.40
2019-03-31T04:50:35.620Z,61.10
2019-03-31T04:53:04.891Z,69.50
2019-03-31T04:55:34.786Z,57.97
2019-03-31T04:58:04.187Z,61.03
2019-03-31T05:00:33.451Z,66.90
2019-03-31T05:03:02.786Z,68.90
2019-03-31T05:05:32.032Z,77.10
2019-03-31T05:08:01.295Z,83.13
2019-03-31T05:10:30.613Z,83.93
2019-03-31T05:13:02.907Z,88.73
2019-03-31T05:15:32.178Z,80.70
2019-03-31T05:18:01.426Z,83.63
2019-03-31T05:20:30.698Z,79.47
2019-03-31T05:23:00.143Z,82.50
2019-03-31T05:25:29.526Z,84.93
2019-03-31T05:27:58.800Z,86.13
2019-03-31T05:30:28.078Z,87.97
2019-03-31T05:33:16.683Z,90.07
2019-03-31T05:35:46.083Z,86.40
2019-03-31T05:38:15.401Z,85.27
2019-03-31T05:40:44.696Z,87.87
2019-03-31T05:43:14.197Z,87.83
2019-03-31T05:45:43.455Z,82.03
2019-03-31T05:48:19.676Z,87.33
2019-03-31T05:50:48.998Z,92.20
2019-03-31T05:53:18.246Z,88.90
2019-03-31T05:55:47.510Z,75.17
2019-03-31T05:58:16.781Z,78.40
2019-03-31T06:03:41.689Z,71.47
2019-03-31T06:06:10.952Z,72.97
2019-03-31T06:08:40.174Z,78.40
2019-03-31T06:11:10.528Z,82.93
2019-03-31T06:13:39.928Z,79.93
2019-03-31T06:17:04.398Z,73.70
2019-03-31T06:19:35.212Z,70.37
2019-03-31T06:22:04.487Z,77.50
2019-03-31T06:24:33.843Z,75.70
2019-03-31T06:27:03.078Z,71.07
2019-03-31T06:29:32.320Z,76.13
2019-03-31T06:32:01.671Z,71.10
2019-03-31T06:34:30.946Z,70.83
2019-03-31T06:37:00.207Z,78.17
2019-03-31T06:39:29.479Z,65.83
2019-03-31T06:42:18.056Z,67.73
2019-03-31T06:44:47.323Z,65.23
2019-03-31T06:47:16.668Z,63.00
2019-03-31T06:49:45.967Z,67.90
2019-03-31T06:52:15.895Z,68.03
2019-03-31T06:54:45.161Z,63.77
2019-03-31T06:57:14.547Z,66.23
2019-03-31T07:00:38.795Z,61.77
2019-03-31T07:03:08.035Z,58.43
2019-03-31T07:05:37.282Z,60.13
2019-03-31T07:08:06.551Z,65.43
2019-03-31T07:10:36.058Z,67.03
2019-03-31T07:13:05.373Z,64.70
2019-03-31T07:15:34.647Z,61.43
2019-03-31T07:18:04.053Z,62.67
2019-03-31T07:20:33.394Z,64.80
2019-03-31T07:23:22.011Z,59.23
2019-03-31T07:25:51.263Z,66.47
2019-03-31T07:28:20.578Z,58.33
2019-03-31T07:30:49.880Z,64.53
2019-03-31T07:33:19.218Z,57.70
2019-03-31T07:35:48.496Z,72.70
2019-03-31T07:38:17.908Z,56.03
2019-03-31T07:40:47.354Z,54.57
2019-03-31T07:43:17.144Z,53.17
2019-03-31T07:45:46.534Z,53.47
2019-03-31T07:48:16.052Z,57.43
2019-03-31T07:50:45.321Z,54.33
2019-03-31T07:53:14.581Z,51.03
2019-03-31T07:55:43.819Z,55.80
2019-03-31T07:58:13.077Z,49.83
2019-03-31T08:01:37.420Z,53.77
2019-03-31T08:04:06.666Z,65.07
2019-03-31T08:06:35.991Z,46.93
2019-03-31T08:09:08.557Z,50.80
2019-03-31T08:11:37.975Z,52.73
2019-03-31T08:18:05.848Z,39.93
2019-03-31T08:20:35.159Z,36.43
2019-03-31T08:23:04.439Z,41.00
2019-03-31T08:25:53.235Z,35.90
2019-03-31T08:28:22.946Z,40.23
2019-03-31T08:30:52.378Z,38.93
2019-03-31T08:33:21.678Z,35.97
2019-03-31T08:35:50.956Z,34.30
2019-03-31T08:38:20.279Z,36.70
2019-03-31T08:40:49.549Z,28.60
2019-03-31T08:43:18.976Z,35.27
2019-03-31T08:45:48.250Z,31.50
2019-03-31T08:48:17.522Z,33.37
2019-03-31T08:50:46.766Z,27.47
2019-03-31T08:53:16.117Z,29.73
2019-03-31T08:55:45.466Z,32.33
2019-03-31T08:58:14.917Z,27.37
2019-03-31T09:00:45.810Z,30.63
2019-03-31T09:03:15.038Z,26.00
2019-03-31T09:06:03.692Z,33.00
2019-03-31T09:08:33.045Z,33.33
2019-03-31T09:11:02.380Z,30.13
2019-03-31T09:13:31.664Z,31.27
2019-03-31T09:16:38.199Z,35.00
2019-03-31T09:19:07.450Z,28.50
2019-03-31T09:21:36.789Z,29.73
2019-03-31T09:24:06.026Z,29.23
2019-03-31T09:26:36.508Z,27.13
2019-03-31T09:29:05.863Z,26.83
2019-03-31T09:31:35.279Z,24.80
2019-03-31T09:34:04.605Z,26.10
2019-03-31T09:36:33.963Z,24.17
2019-03-31T09:39:05.192Z,24.90
2019-03-31T09:41:34.438Z,21.30
2019-03-31T09:44:03.802Z,19.97
2019-03-31T09:46:33.044Z,26.00
2019-03-31T09:49:02.327Z,21.50
2019-03-31T09:51:31.672Z,21.07
2019-03-31T09:54:01.065Z,21.47
2019-03-31T09:56:30.419Z,19.03
2019-03-31T09:58:59.796Z,18.27
2019-03-31T10:01:29.078Z,16.50
2019-03-31T10:03:58.395Z,20.13
2019-03-31T10:10:33.801Z,13.80
2019-03-31T10:13:03.118Z,16.87
2019-03-31T10:15:32.508Z,14.80
2019-03-31T10:18:21.175Z,16.03
2019-03-31T10:20:50.515Z,17.77
2019-03-31T10:23:19.757Z,15.93
2019-03-31T10:25:49.033Z,20.13
2019-03-31T10:28:18.281Z,18.53
2019-03-31T10:30:47.515Z,17.70
2019-03-31T10:33:16.808Z,17.97
2019-03-31T10:35:46.064Z,16.00
2019-03-31T10:38:15.459Z,16.20
2019-03-31T10:40:44.916Z,15.60
2019-03-31T10:43:14.342Z,15.90
2019-03-31T10:45:43.701Z,16.20
2019-03-31T10:48:20.223Z,14.90
2019-03-31T10:50:44.019Z,15.10
2019-03-31T10:53:14.448Z,16.43
2019-03-31T10:55:43.856Z,13.60
2019-03-31T10:58:13.275Z,15.17
2019-03-31T11:00:44.516Z,16.17
2019-03-31T11:03:13.573Z,13.37
2019-03-31T11:05:42.943Z,14.30
2019-03-31T11:08:12.192Z,11.90
2019-03-31T11:10:41.640Z,12.23
2019-03-31T11:13:10.874Z,17.43
2019-03-31T11:15:40.245Z,18.27
2019-03-31T11:18:09.484Z,14.60
2019-03-31T11:20:59.892Z,14.73
2019-03-31T11:23:30.440Z,13.10
2019-03-31T11:25:59.797Z,15.83
2019-03-31T11:28:29.050Z,12.83
2019-03-31T11:30:58.363Z,13.73
2019-03-31T11:37:15.353Z,15.17
2019-03-31T11:39:44.658Z,15.43
2019-03-31T11:42:14.232Z,15.67
2019-03-31T11:44:43.594Z,13.07
2019-03-31T11:47:12.848Z,13.13
2019-03-31T11:49:42.110Z,12.97
2019-03-31T11:52:11.394Z,13.70
2019-03-31T11:54:40.690Z,13.27
2019-03-31T11:57:10.343Z,13.10
2019-03-31T11:59:39.659Z,11.30
2019-03-31T12:02:09.099Z,16.40
2019-03-31T12:04:38.391Z,12.80
2019-03-31T12:07:07.734Z,11.33
2019-03-31T12:09:37.135Z,10.10
2019-03-31T12:12:06.669Z,14.83
2019-03-31T12:14:35.909Z,12.53
2019-03-31T12:17:06.413Z,14.40
2019-03-31T12:19:35.770Z,10.83
2019-03-31T12:22:05.155Z,10.00
2019-03-31T12:24:34.541Z,11.27
2019-03-31T12:27:03.841Z,12.30
2019-03-31T12:29:33.084Z,14.47
2019-03-31T12:32:02.430Z,10.10
2019-03-31T12:34:31.679Z,15.17
2019-03-31T12:39:50.377Z,11.90
2019-03-31T12:42:39.039Z,13.13
2019-03-31T12:45:08.506Z,8.53
2019-03-31T12:47:37.884Z,10.60
2019-03-31T12:50:07.515Z,15.30
2019-03-31T12:52:46.688Z,9.40
2019-03-31T12:55:07.931Z,12.00
2019-03-31T12:57:37.225Z,10.10
2019-03-31T13:00:07.705Z,9.27
2019-03-31T13:02:37.127Z,9.73
2019-03-31T13:05:07.226Z,12.30
2019-03-31T13:07:36.593Z,9.40
2019-03-31T13:10:06.219Z,11.30
2019-03-31T13:12:37.360Z,9.77
2019-03-31T13:15:11.139Z,11.10
2019-03-31T13:17:40.517Z,10.43
2019-03-31T13:20:10.028Z,9.10
2019-03-31T13:22:39.374Z,9.90
2019-03-31T13:25:08.744Z,9.60
2019-03-31T13:27:38.043Z,11.33
2019-03-31T13:30:08.495Z,11.27
2019-03-31T13:32:37.764Z,9.83
2019-03-31T13:35:09.156Z,12.33
2019-03-31T13:37:38.443Z,9.33
2019-03-31T13:40:07.930Z,11.40
2019-03-31T13:42:37.337Z,12.90
2019-03-31T13:45:08.021Z,9.10
2019-03-31T13:47:37.319Z,9.83
2019-03-31T13:50:09.340Z,10.60
2019-03-31T13:52:38.685Z,11.43
2019-03-31T13:55:08.433Z,9.13
2019-03-31T13:57:39.852Z,9.20
2019-03-31T14:00:10.618Z,8.43
2019-03-31T14:02:40.402Z,8.17
2019-03-31T14:05:10.229Z,7.73
2019-03-31T14:07:39.579Z,8.33
2019-03-31T14:10:09.517Z,16.90
2019-03-31T14:12:39.870Z,9.37
2019-03-31T14:15:18.980Z,10.00
2019-03-31T14:17:59.603Z,6.73
2019-03-31T14:20:28.980Z,8.17
2019-03-31T14:22:58.235Z,8.17
2019-03-31T14:25:28.184Z,7.47
2019-03-31T14:28:16.827Z,6.97
2019-03-31T14:30:46.178Z,7.10
2019-03-31T14:33:15.482Z,6.83
2019-03-31T14:35:44.800Z,9.20
2019-03-31T14:38:14.404Z,9.03
2019-03-31T14:40:43.823Z,7.57
2019-03-31T14:43:14.669Z,9.20
2019-03-31T14:45:43.964Z,9.30
2019-03-31T14:48:16.248Z,10.07
2019-03-31T14:50:45.501Z,9.13
2019-03-31T14:53:14.863Z,11.93
2019-03-31T14:55:44.131Z,12.80
2019-03-31T14:58:14.477Z,10.77
2019-03-31T15:00:43.830Z,11.47
2019-03-31T15:03:13.153Z,10.00
2019-03-31T15:05:42.792Z,9.10
2019-03-31T15:08:12.158Z,10.30
2019-03-31T15:10:41.424Z,10.77
2019-03-31T15:13:10.658Z,7.77
2019-03-31T15:15:40.040Z,13.20
2019-03-31T15:18:09.452Z,9.50
2019-03-31T15:20:38.795Z,11.07
2019-03-31T15:23:08.114Z,10.30
2019-03-31T15:25:37.434Z,11.73
2019-03-31T15:28:06.769Z,7.80
2019-03-31T15:30:36.222Z,7.63
2019-03-31T15:33:05.599Z,6.50
2019-03-31T15:35:37.833Z,5.20
2019-03-31T15:38:07.372Z,10.97
2019-03-31T15:40:36.696Z,8.50
2019-03-31T15:43:06.066Z,5.90
2019-03-31T15:45:35.405Z,6.40
2019-03-31T15:48:11.852Z,7.60
2019-03-31T15:50:41.158Z,5.97
2019-03-31T15:53:10.460Z,6.90
2019-03-31T15:55:39.786Z,8.23
2019-03-31T15:58:09.160Z,9.00
2019-03-31T16:00:38.467Z,9.40
2019-03-31T16:03:07.775Z,7.20
2019-03-31T16:05:37.102Z,6.30
2019-03-31T16:08:06.493Z,6.97
2019-03-31T16:10:37.340Z,10.63
2019-03-31T16:13:06.610Z,7.63
2019-03-31T16:15:35.947Z,5.57
2019-03-31T16:18:05.301Z,5.00
2019-03-31T16:20:34.614Z,7.00
2019-03-31T16:23:03.993Z,8.67
2019-03-31T16:25:34.996Z,6.37
2019-03-31T16:28:04.362Z,7.60
2019-03-31T16:30:35.265Z,9.20
2019-03-31T16:33:07.088Z,9.00
2019-03-31T16:35:35.752Z,9.13
2019-03-31T16:38:05.186Z,7.83
2019-03-31T16:40:34.527Z,9.63
2019-03-31T16:43:04.163Z,5.70
2019-03-31T16:45:52.761Z,5.10
2019-03-31T16:48:22.109Z,7.30
2019-03-31T16:50:51.372Z,5.20
2019-03-31T16:53:20.685Z,10.80
2019-03-31T16:55:50.024Z,12.73
2019-03-31T16:58:19.351Z,6.97
2019-03-31T17:00:48.731Z,6.73
2019-03-31T17:03:18.453Z,6.33
2019-03-31T17:05:47.943Z,9.00
2019-03-31T17:08:17.210Z,7.33
2019-03-31T17:11:05.866Z,9.60
2019-03-31T17:13:35.163Z,5.93
2019-03-31T17:16:04.559Z,9.80
2019-03-31T17:18:33.835Z,9.33
2019-03-31T17:21:05.156Z,12.33
2019-03-31T17:23:34.477Z,10.03
2019-03-31T17:26:03.721Z,9.17
2019-03-31T17:28:32.950Z,11.67
2019-03-31T17:31:02.229Z,8.40
2019-03-31T17:33:31.559Z,9.57
2019-03-31T17:36:00.893Z,11.43
2019-03-31T17:38:49.568Z,12.40
2019-03-31T17:41:18.920Z,14.17
2019-03-31T17:43:48.165Z,6.17
2019-03-31T17:46:17.704Z,9.07
2019-03-31T17:48:46.972Z,7.00
2019-03-31T17:51:16.301Z,18.03
2019-03-31T17:53:45.690Z,12.80
2019-03-31T17:56:15.684Z,9.63
2019-03-31T17:58:45.014Z,8.27
2019-03-31T18:01:33.640Z,6.40
2019-03-31T18:04:02.962Z,8.80
2019-03-31T18:06:32.382Z,14.03
2019-03-31T18:09:01.703Z,11.23
2019-03-31T18:11:30.998Z,10.07
2019-03-31T18:14:00.272Z,12.97
2019-03-31T18:16:29.523Z,13.40
2019-03-31T18:18:58.795Z,10.40
2019-03-31T18:21:28.206Z,7.97
2019-03-31T18:23:57.732Z,12.47
2019-03-31T18:26:27.047Z,10.80
2019-03-31T18:28:56.400Z,9.40
2019-03-31T18:31:45.014Z,9.40
2019-03-31T18:34:14.372Z,11.13
2019-03-31T18:36:43.669Z,6.60
2019-03-31T18:39:13.033Z,10.63
2019-03-31T18:41:42.345Z,9.73
2019-03-31T18:44:11.673Z,10.47
2019-03-31T18:46:41.051Z,16.30
2019-03-31T18:49:10.307Z,12.30
2019-03-31T18:51:39.632Z,13.80
2019-03-31T18:57:30.548Z,14.07
2019-03-31T19:00:07.493Z,10.80
2019-03-31T19:03:03.446Z,12.57
2019-03-31T19:05:34.433Z,8.53
2019-03-31T19:08:17.246Z,8.27
2019-03-31T19:10:54.265Z,9.97
2019-03-31T19:13:34.303Z,8.97
2019-03-31T19:16:21.609Z,12.80
2019-03-31T19:18:52.497Z,69.23
2019-03-31T19:21:23.486Z,90.77
2019-03-31T19:24:10.759Z,141.13
2019-03-31T19:26:48.968Z,25.27
2019-03-31T19:29:20.147Z,34.37
2019-03-31T19:32:07.183Z,18.83
2019-03-31T19:34:40.653Z,16.23
2019-03-31T19:37:17.621Z,14.10
2019-03-31T19:40:05.067Z,6.20
2019-03-31T19:42:37.557Z,13.13
2019-03-31T19:45:08.644Z,12.57
2019-03-31T19:47:41.271Z,14.97
2019-03-31T19:50:31.407Z,10.10
2019-03-31T19:53:05.259Z,10.27
2019-03-31T19:56:06.939Z,9.47
2019-03-31T19:58:44.964Z,8.73
2019-03-31T20:01:24.793Z,10.20
2019-03-31T20:04:07.823Z,7.80
2019-03-31T20:06:56.703Z,10.87
2019-03-31T20:12:38.147Z,9.93
2019-03-31T20:15:12.811Z,10.57
2019-03-31T20:18:05.179Z,11.43
2019-03-31T20:20:36.093Z,9.07
2019-03-31T20:23:25.034Z,3.50
2019-03-31T20:26:12.254Z,8.17
2019-03-31T20:28:46.027Z,5.17
2019-03-31T20:31:33.525Z,8.70
2019-03-31T20:34:04.446Z,9.80
2019-03-31T20:36:41.355Z,10.70
2019-03-31T20:39:12.486Z,9.70
2019-03-31T20:41:43.371Z,5.33
2019-03-31T20:44:12.659Z,8.63
2019-03-31T20:46:42.899Z,20.17
2019-03-31T20:49:12.169Z,26.43
2019-03-31T20:52:00.760Z,7.90
2019-03-31T20:54:32.932Z,16.03
2019-03-31T20:57:01.052Z,15.33
2019-03-31T20:59:30.435Z,12.03
2019-03-31T21:01:59.732Z,10.10
2019-03-31T21:04:28.991Z,6.90
2019-03-31T21:06:58.380Z,8.17
2019-03-31T21:09:27.621Z,10.97
2019-03-31T21:12:16.286Z,9.80
2019-03-31T21:14:45.531Z,7.87
2019-03-31T21:17:14.844Z,9.93
2019-03-31T21:19:44.105Z,7.60
2019-03-31T21:22:13.511Z,10.40
2019-03-31T21:24:42.848Z,13.30
2019-03-31T21:27:31.449Z,11.90
2019-03-31T21:30:00.700Z,10.10
2019-03-31T21:32:29.931Z,9.03
2019-03-31T21:34:59.253Z,9.37
2019-03-31T21:37:28.524Z,8.70
2019-03-31T21:39:57.785Z,6.13
2019-03-31T21:42:27.127Z,8.63
2019-03-31T21:44:56.395Z,7.50
2019-03-31T21:47:25.741Z,7.60
2019-03-31T21:49:55.035Z,9.10
2019-03-31T21:52:24.311Z,12.03
2019-03-31T21:54:53.604Z,10.07
2019-03-31T21:57:23.021Z,8.97
2019-03-31T21:59:52.252Z,9.70
2019-03-31T22:02:22.126Z,9.00
2019-03-31T22:04:51.355Z,5.47
2019-03-31T22:07:20.643Z,7.60
2019-03-31T22:09:49.976Z,6.53
2019-03-31T22:12:19.190Z,6.50
2019-03-31T22:14:48.426Z,9.13
2019-03-31T22:17:17.747Z,6.83
2019-03-31T22:19:46.975Z,9.73
2019-03-31T22:22:16.211Z,8.97
2019-03-31T22:24:45.486Z,6.80
2019-03-31T22:27:14.755Z,7.27
2019-03-31T22:29:44.085Z,12.27
2019-03-31T22:32:13.388Z,5.40
2019-03-31T22:34:42.629Z,7.03
2019-03-31T22:37:11.870Z,13.03
2019-03-31T22:39:41.111Z,3.63
2019-03-31T22:42:10.368Z,8.53
2019-03-31T22:44:39.639Z,9.60
2019-03-31T22:47:11.947Z,10.60
2019-03-31T22:49:41.215Z,7.03
2019-03-31T22:52:10.450Z,6.80
2019-03-31T22:54:39.711Z,9.80
2019-03-31T22:57:09.036Z,9.00
2019-03-31T22:59:38.280Z,8.10
2019-03-31T23:02:07.955Z,9.20
2019-03-31T23:04:37.250Z,8.10
2019-03-31T23:07:14.382Z,10.07
2019-03-31T23:09:45.938Z,7.20
2019-03-31T23:12:15.357Z,6.40
2019-03-31T23:14:44.818Z,4.40
2019-03-31T23:17:14.124Z,5.60
2019-03-31T23:19:43.562Z,10.40
2019-03-31T23:22:12.908Z,10.47
2019-03-31T23:24:42.149Z,8.03
2019-03-31T23:27:11.415Z,15.30
2019-03-31T23:29:40.658Z,8.93
2019-03-31T23:32:10.067Z,9.03
2019-03-31T23:34:39.327Z,10.00
2019-03-31T23:37:08.566Z,8.33
2019-03-31T23:39:57.187Z,7.07
2019-03-31T23:42:26.498Z,9.53
2019-03-31T23:44:55.738Z,12.67
2019-03-31T23:47:24.987Z,14.90
2019-03-31T23:49:54.213Z,9.03
2019-03-31T23:52:23.484Z,6.87
2019-03-31T23:54:52.747Z,9.60
2019-03-31T23:57:23.615Z,12.17
2019-03-31T23:59:53.010Z,12.20
